sensor_id;sensor_type;location;lat;lon;timestamp;pressure;altitude;pressure_sealevel;temperature;humidity
22241;BME280;11289;52.524;13.694;2023-01-29T00:02:22;102057.69;;;-1.25;74.00
22241;BME280;11289;52.524;13.694;2023-01-29T00:04:48;102070.66;;;-1.13;74.84
22241;BME280;11289;52.524;13.694;2023-01-29T00:07:13;102050.78;;;-1.34;74.28
22241;BME280;11289;52.524;13.694;2023-01-29T00:09:39;102053.50;;;-1.27;74.69
22241;BME280;11289;52.524;13.694;2023-01-29T00:12:04;102039.28;;;-1.36;74.42
22241;BME280;11289;52.524;13.694;2023-01-29T00:14:31;102072.06;;;-1.11;74.76
22241;BME280;11289;52.524;13.694;2023-01-29T00:16:57;102069.56;;;-1.12;74.76
22241;BME280;11289;52.524;13.694;2023-01-29T00:19:22;102041.34;;;-1.25;74.68
22241;BME280;11289;52.524;13.694;2023-01-29T00:21:56;102060.13;;;-1.10;74.31
22241;BME280;11289;52.524;13.694;2023-01-29T00:24:22;102038.41;;;-1.23;74.85
22241;BME280;11289;52.524;13.694;2023-01-29T00:26:47;102052.19;;;-1.18;74.59
22241;BME280;11289;52.524;13.694;2023-01-29T00:29:14;102056.16;;;-1.14;74.63
22241;BME280;11289;52.524;13.694;2023-01-29T00:31:43;102025.81;;;-1.24;74.32
22241;BME280;11289;52.524;13.694;2023-01-29T00:34:09;102052.34;;;-1.06;74.77
22241;BME280;11289;52.524;13.694;2023-01-29T00:36:37;102032.47;;;-1.13;74.20
22241;BME280;11289;52.524;13.694;2023-01-29T00:39:03;102051.28;;;-1.05;74.49
22241;BME280;11289;52.524;13.694;2023-01-29T00:41:35;102040.66;;;-1.13;74.88
22241;BME280;11289;52.524;13.694;2023-01-29T00:44:19;102037.50;;;-1.10;75.09
22241;BME280;11289;52.524;13.694;2023-01-29T00:47:04;102047.91;;;-1.00;75.14
22241;BME280;11289;52.524;13.694;2023-01-29T00:49:50;102037.66;;;-1.05;74.95
22241;BME280;11289;52.524;13.694;2023-01-29T00:52:15;102038.50;;;-1.04;74.64
22241;BME280;11289;52.524;13.694;2023-01-29T00:54:56;101999.81;;;-1.27;74.71
22241;BME280;11289;52.524;13.694;2023-01-29T00:57:23;102024.09;;;-1.12;75.18
22241;BME280;11289;52.524;13.694;2023-01-29T00:59:48;102024.69;;;-1.10;75.14
22241;BME280;11289;52.524;13.694;2023-01-29T01:02:14;102037.44;;;-1.03;74.99
22241;BME280;11289;52.524;13.694;2023-01-29T01:04:58;102035.34;;;-1.01;75.27
22241;BME280;11289;52.524;13.694;2023-01-29T01:07:23;102007.75;;;-1.18;75.46
22241;BME280;11289;52.524;13.694;2023-01-29T01:09:51;102007.53;;;-1.17;75.48
22241;BME280;11289;52.524;13.694;2023-01-29T01:12:35;102005.59;;;-1.10;75.63
22241;BME280;11289;52.524;13.694;2023-01-29T01:15:01;102037.56;;;-0.92;75.47
22241;BME280;11289;52.524;13.694;2023-01-29T01:17:26;102046.16;;;-0.88;75.04
22241;BME280;11289;52.524;13.694;2023-01-29T01:19:52;102009.78;;;-1.07;75.32
22241;BME280;11289;52.524;13.694;2023-01-29T01:22:17;102013.56;;;-1.08;74.88
22241;BME280;11289;52.524;13.694;2023-01-29T01:24:45;102037.78;;;-0.86;74.74
22241;BME280;11289;52.524;13.694;2023-01-29T01:27:13;101997.63;;;-1.04;75.17
22241;BME280;11289;52.524;13.694;2023-01-29T01:29:39;102000.53;;;-1.06;74.95
22241;BME280;11289;52.524;13.694;2023-01-29T01:32:05;102024.72;;;-0.84;75.13
22241;BME280;11289;52.524;13.694;2023-01-29T01:34:30;102029.59;;;-0.86;75.10
22241;BME280;11289;52.524;13.694;2023-01-29T01:36:56;102018.09;;;-0.95;74.98
22241;BME280;11289;52.524;13.694;2023-01-29T01:39:23;102030.84;;;-0.89;75.17
22241;BME280;11289;52.524;13.694;2023-01-29T01:41:49;102035.19;;;-0.81;75.53
22241;BME280;11289;52.524;13.694;2023-01-29T01:45:00;102043.19;;;-0.80;75.34
22241;BME280;11289;52.524;13.694;2023-01-29T01:47:30;102031.03;;;-0.84;75.65
22241;BME280;11289;52.524;13.694;2023-01-29T01:50:02;102018.69;;;-0.86;75.57
22241;BME280;11289;52.524;13.694;2023-01-29T01:52:32;101994.44;;;-1.01;75.24
22241;BME280;11289;52.524;13.694;2023-01-29T01:55:00;101991.31;;;-1.05;75.11
22241;BME280;11289;52.524;13.694;2023-01-29T01:57:26;102018.69;;;-0.86;75.17
22241;BME280;11289;52.524;13.694;2023-01-29T02:00:09;102036.44;;;-0.77;75.54
22241;BME280;11289;52.524;13.694;2023-01-29T02:02:38;102021.41;;;-0.86;75.59
22241;BME280;11289;52.524;13.694;2023-01-29T02:05:24;102010.50;;;-0.86;75.62
22241;BME280;11289;52.524;13.694;2023-01-29T02:08:09;102020.97;;;-0.83;75.38
22241;BME280;11289;52.524;13.694;2023-01-29T02:10:54;102020.59;;;-0.94;75.42
22241;BME280;11289;52.524;13.694;2023-01-29T02:13:20;102005.50;;;-0.96;75.57
22241;BME280;11289;52.524;13.694;2023-01-29T02:15:47;102022.66;;;-0.89;75.53
22241;BME280;11289;52.524;13.694;2023-01-29T02:18:17;101971.50;;;-1.19;76.05
22241;BME280;11289;52.524;13.694;2023-01-29T02:20:48;102001.75;;;-0.95;76.04
22241;BME280;11289;52.524;13.694;2023-01-29T02:23:46;102015.72;;;-0.85;76.42
22241;BME280;11289;52.524;13.694;2023-01-29T02:32:40;101994.78;;;-0.91;76.33
22241;BME280;11289;52.524;13.694;2023-01-29T02:35:28;101988.94;;;-0.95;76.31
22241;BME280;11289;52.524;13.694;2023-01-29T02:38:17;101966.53;;;-1.03;76.84
22241;BME280;11289;52.524;13.694;2023-01-29T02:44:02;102010.28;;;-0.85;76.93
22241;BME280;11289;52.524;13.694;2023-01-29T02:50:18;102010.28;;;-0.85;76.80
22241;BME280;11289;52.524;13.694;2023-01-29T02:53:23;101995.81;;;-0.85;76.94
22241;BME280;11289;52.524;13.694;2023-01-29T02:56:18;101936.69;;;-1.24;77.09
22241;BME280;11289;52.524;13.694;2023-01-29T02:58:52;101920.16;;;-1.29;77.26
22241;BME280;11289;52.524;13.694;2023-01-29T03:01:35;101928.13;;;-1.27;77.16
22241;BME280;11289;52.524;13.694;2023-01-29T03:04:08;101928.94;;;-1.27;77.06
22241;BME280;11289;52.524;13.694;2023-01-29T03:06:47;101947.91;;;-1.07;77.20
22241;BME280;11289;52.524;13.694;2023-01-29T03:09:40;101958.09;;;-0.95;77.33
22241;BME280;11289;52.524;13.694;2023-01-29T03:12:12;101994.50;;;-0.83;77.33
22241;BME280;11289;52.524;13.694;2023-01-29T03:15:10;101964.78;;;-0.91;76.89
22241;BME280;11289;52.524;13.694;2023-01-29T03:17:50;101977.53;;;-0.85;77.40
22241;BME280;11289;52.524;13.694;2023-01-29T03:20:31;101975.19;;;-0.81;77.40
22241;BME280;11289;52.524;13.694;2023-01-29T03:26:20;101974.16;;;-0.80;77.06
22241;BME280;11289;52.524;13.694;2023-01-29T03:29:06;101972.91;;;-0.84;77.10
22241;BME280;11289;52.524;13.694;2023-01-29T03:31:54;101953.47;;;-0.95;77.48
22241;BME280;11289;52.524;13.694;2023-01-29T03:34:39;101953.09;;;-0.98;77.46
22241;BME280;11289;52.524;13.694;2023-01-29T03:37:37;101970.97;;;-0.77;77.40
22241;BME280;11289;52.524;13.694;2023-01-29T03:40:06;101933.09;;;-0.85;77.21
22241;BME280;11289;52.524;13.694;2023-01-29T03:45:36;101910.38;;;-1.04;77.27
22241;BME280;11289;52.524;13.694;2023-01-29T03:51:05;101947.50;;;-0.78;77.63
22241;BME280;11289;52.524;13.694;2023-01-29T03:53:41;101908.44;;;-0.97;77.70
22241;BME280;11289;52.524;13.694;2023-01-29T03:59:17;101890.44;;;-1.05;77.46
22241;BME280;11289;52.524;13.694;2023-01-29T04:01:50;101885.53;;;-0.96;77.72
22241;BME280;11289;52.524;13.694;2023-01-29T04:04:35;101885.94;;;-0.93;77.78
22241;BME280;11289;52.524;13.694;2023-01-29T04:07:15;101887.00;;;-0.94;78.00
22241;BME280;11289;52.524;13.694;2023-01-29T04:10:02;101860.28;;;-1.10;78.15
22241;BME280;11289;52.524;13.694;2023-01-29T04:12:38;101883.44;;;-0.94;78.15
22241;BME280;11289;52.524;13.694;2023-01-29T04:15:18;101845.66;;;-1.16;77.92
22241;BME280;11289;52.524;13.694;2023-01-29T04:17:56;101856.47;;;-1.09;77.99
22241;BME280;11289;52.524;13.694;2023-01-29T04:20:22;101867.91;;;-0.94;78.19
22241;BME280;11289;52.524;13.694;2023-01-29T04:22:50;101880.72;;;-0.76;78.29
22241;BME280;11289;52.524;13.694;2023-01-29T04:25:19;101819.75;;;-1.07;78.35
22241;BME280;11289;52.524;13.694;2023-01-29T04:28:15;101872.31;;;-0.74;78.24
22241;BME280;11289;52.524;13.694;2023-01-29T04:39:11;101831.84;;;-0.96;78.41
22241;BME280;11289;52.524;13.694;2023-01-29T04:41:59;101858.09;;;-0.76;78.46
22241;BME280;11289;52.524;13.694;2023-01-29T04:44:42;101827.66;;;-0.98;78.74
22241;BME280;11289;52.524;13.694;2023-01-29T04:50:02;101864.75;;;-0.72;78.58
22241;BME280;11289;52.524;13.694;2023-01-29T04:52:51;101865.81;;;-0.73;78.79
22241;BME280;11289;52.524;13.694;2023-01-29T04:55:31;101857.91;;;-0.81;79.10
22241;BME280;11289;52.524;13.694;2023-01-29T05:00:47;101832.06;;;-0.97;79.00
22241;BME280;11289;52.524;13.694;2023-01-29T05:03:15;101814.31;;;-1.07;78.86
22241;BME280;11289;52.524;13.694;2023-01-29T05:05:43;101835.78;;;-0.92;78.97
22241;BME280;11289;52.524;13.694;2023-01-29T05:08:17;101835.78;;;-0.92;79.12
22241;BME280;11289;52.524;13.694;2023-01-29T05:10:47;101868.72;;;-0.68;79.11
22241;BME280;11289;52.524;13.694;2023-01-29T05:13:14;101861.09;;;-0.84;79.44
22241;BME280;11289;52.524;13.694;2023-01-29T05:15:46;101863.78;;;-0.78;79.80
22241;BME280;11289;52.524;13.694;2023-01-29T05:18:13;101847.69;;;-0.86;80.11
22241;BME280;11289;52.524;13.694;2023-01-29T05:20:40;101842.44;;;-0.88;80.24
22241;BME280;11289;52.524;13.694;2023-01-29T05:23:18;101860.22;;;-0.78;80.86
22241;BME280;11289;52.524;13.694;2023-01-29T05:25:49;101837.44;;;-0.91;81.39
22241;BME280;11289;52.524;13.694;2023-01-29T05:28:14;101843.72;;;-0.90;81.33
22241;BME280;11289;52.524;13.694;2023-01-29T05:30:45;101872.72;;;-0.71;81.94
22241;BME280;11289;52.524;13.694;2023-01-29T05:33:31;101856.84;;;-0.80;82.40
22241;BME280;11289;52.524;13.694;2023-01-29T05:35:59;101843.09;;;-0.85;82.66
22241;BME280;11289;52.524;13.694;2023-01-29T05:38:27;101854.75;;;-0.78;83.90
22241;BME280;11289;52.524;13.694;2023-01-29T05:40:53;101840.13;;;-0.84;84.04
22241;BME280;11289;52.524;13.694;2023-01-29T05:43:20;101869.94;;;-0.64;84.05
22241;BME280;11289;52.524;13.694;2023-01-29T05:45:56;101837.16;;;-0.82;83.98
22241;BME280;11289;52.524;13.694;2023-01-29T05:48:23;101862.63;;;-0.70;84.06
22241;BME280;11289;52.524;13.694;2023-01-29T05:50:49;101874.94;;;-0.61;83.86
22241;BME280;11289;52.524;13.694;2023-01-29T05:53:15;101831.41;;;-0.93;85.09
22241;BME280;11289;52.524;13.694;2023-01-29T05:55:43;101850.19;;;-0.84;84.93
22241;BME280;11289;52.524;13.694;2023-01-29T05:58:09;101876.50;;;-0.72;85.14
22241;BME280;11289;52.524;13.694;2023-01-29T06:00:35;101857.16;;;-0.89;84.88
22241;BME280;11289;52.524;13.694;2023-01-29T06:03:00;101859.44;;;-0.85;84.66
22241;BME280;11289;52.524;13.694;2023-01-29T06:05:26;101865.72;;;-0.85;84.83
22241;BME280;11289;52.524;13.694;2023-01-29T06:07:51;101870.44;;;-0.74;84.82
22241;BME280;11289;52.524;13.694;2023-01-29T06:10:18;101890.69;;;-0.63;85.12
22241;BME280;11289;52.524;13.694;2023-01-29T06:12:44;101892.81;;;-0.65;85.36
22241;BME280;11289;52.524;13.694;2023-01-29T06:15:10;101884.63;;;-0.65;85.19
22241;BME280;11289;52.524;13.694;2023-01-29T06:17:36;101866.94;;;-0.81;85.09
22241;BME280;11289;52.524;13.694;2023-01-29T06:20:03;101859.44;;;-0.85;85.54
22241;BME280;11289;52.524;13.694;2023-01-29T06:22:29;101867.78;;;-0.80;85.46
22241;BME280;11289;52.524;13.694;2023-01-29T06:24:56;101885.31;;;-0.69;85.68
22241;BME280;11289;52.524;13.694;2023-01-29T06:27:23;101858.53;;;-0.79;85.54
22241;BME280;11289;52.524;13.694;2023-01-29T06:29:48;101892.13;;;-0.60;85.76
22241;BME280;11289;52.524;13.694;2023-01-29T06:32:16;101851.84;;;-0.83;85.57
22241;BME280;11289;52.524;13.694;2023-01-29T06:34:42;101881.91;;;-0.65;85.50
22241;BME280;11289;52.524;13.694;2023-01-29T06:37:07;101886.47;;;-0.59;85.75
22241;BME280;11289;52.524;13.694;2023-01-29T06:39:33;101877.69;;;-0.61;85.57
22241;BME280;11289;52.524;13.694;2023-01-29T06:41:58;101871.22;;;-0.66;85.79
22241;BME280;11289;52.524;13.694;2023-01-29T06:44:26;101888.72;;;-0.56;85.89
22241;BME280;11289;52.524;13.694;2023-01-29T06:46:52;101871.03;;;-0.72;85.72
22241;BME280;11289;52.524;13.694;2023-01-29T06:49:22;101893.59;;;-0.58;85.75
22241;BME280;11289;52.524;13.694;2023-01-29T06:51:56;101831.41;;;-0.93;86.21
22241;BME280;11289;52.524;13.694;2023-01-29T06:54:22;101863.94;;;-0.73;86.59
22241;BME280;11289;52.524;13.694;2023-01-29T06:56:54;101841.53;;;-1.00;86.66
22241;BME280;11289;52.524;13.694;2023-01-29T06:59:20;101852.59;;;-0.95;86.70
22241;BME280;11289;52.524;13.694;2023-01-29T07:01:46;101849.03;;;-0.95;86.56
22241;BME280;11289;52.524;13.694;2023-01-29T07:04:13;101848.00;;;-0.94;86.46
22241;BME280;11289;52.524;13.694;2023-01-29T07:06:39;101877.34;;;-0.71;86.84
22241;BME280;11289;52.524;13.694;2023-01-29T07:09:04;101877.69;;;-0.61;86.97
22241;BME280;11289;52.524;13.694;2023-01-29T07:11:33;101869.16;;;-0.71;87.16
22241;BME280;11289;52.524;13.694;2023-01-29T07:13:59;101885.41;;;-0.58;87.12
22241;BME280;11289;52.524;13.694;2023-01-29T07:16:25;101871.81;;;-0.64;87.35
22241;BME280;11289;52.524;13.694;2023-01-29T07:18:50;101861.59;;;-0.69;87.53
22241;BME280;11289;52.524;13.694;2023-01-29T07:21:16;101878.00;;;-0.50;87.56
22241;BME280;11289;52.524;13.694;2023-01-29T07:23:42;101880.03;;;-0.46;87.40
22241;BME280;11289;52.524;13.694;2023-01-29T07:26:09;101879.44;;;-0.48;87.17
22241;BME280;11289;52.524;13.694;2023-01-29T07:28:36;101857.13;;;-0.63;87.15
22241;BME280;11289;52.524;13.694;2023-01-29T07:31:02;101893.09;;;-0.48;87.58
22241;BME280;11289;52.524;13.694;2023-01-29T07:33:31;101881.78;;;-0.51;87.61
22241;BME280;11289;52.524;13.694;2023-01-29T07:36:05;101856.22;;;-0.57;87.80
22241;BME280;11289;52.524;13.694;2023-01-29T07:39:05;101870.91;;;-0.58;87.67
22241;BME280;11289;52.524;13.694;2023-01-29T07:41:34;101852.25;;;-0.61;87.93
22241;BME280;11289;52.524;13.694;2023-01-29T07:43:59;101843.03;;;-0.60;87.97
22241;BME280;11289;52.524;13.694;2023-01-29T07:46:24;101834.47;;;-0.64;87.97
22241;BME280;11289;52.524;13.694;2023-01-29T07:48:50;101841.75;;;-0.58;88.24
22241;BME280;11289;52.524;13.694;2023-01-29T07:51:17;101846.28;;;-0.51;87.77
22241;BME280;11289;52.524;13.694;2023-01-29T07:53:47;101847.97;;;-0.50;88.04
22241;BME280;11289;52.524;13.694;2023-01-29T07:56:16;101824.63;;;-0.65;87.90
22241;BME280;11289;52.524;13.694;2023-01-29T07:58:45;101851.47;;;-0.43;88.10
22241;BME280;11289;52.524;13.694;2023-01-29T08:01:11;101860.41;;;-0.36;88.58
22241;BME280;11289;52.524;13.694;2023-01-29T08:03:37;101862.28;;;-0.37;88.37
22241;BME280;11289;52.524;13.694;2023-01-29T08:06:03;101858.50;;;-0.36;88.72
22241;BME280;11289;52.524;13.694;2023-01-29T08:08:29;101855.78;;;-0.36;88.84
22241;BME280;11289;52.524;13.694;2023-01-29T08:10:54;101824.63;;;-0.46;88.81
22241;BME280;11289;52.524;13.694;2023-01-29T08:13:20;101844.84;;;-0.36;88.69
22241;BME280;11289;52.524;13.694;2023-01-29T08:15:45;101845.03;;;-0.30;89.01
22241;BME280;11289;52.524;13.694;2023-01-29T08:18:12;101847.28;;;-0.27;88.75
22241;BME280;11289;52.524;13.694;2023-01-29T08:20:37;101855.72;;;-0.29;88.92
22241;BME280;11289;52.524;13.694;2023-01-29T08:23:12;101832.81;;;-0.46;89.11
22241;BME280;11289;52.524;13.694;2023-01-29T08:25:57;101852.81;;;-0.34;89.11
22241;BME280;11289;52.524;13.694;2023-01-29T08:28:23;101856.31;;;-0.27;89.17
22241;BME280;11289;52.524;13.694;2023-01-29T08:30:48;101849.16;;;-0.28;89.19
22241;BME280;11289;52.524;13.694;2023-01-29T08:33:13;101813.63;;;-0.40;89.02
22241;BME280;11289;52.524;13.694;2023-01-29T08:35:39;101837.34;;;-0.22;88.95
22241;BME280;11289;52.524;13.694;2023-01-29T08:38:05;101819.00;;;-0.33;88.99
22241;BME280;11289;52.524;13.694;2023-01-29T08:40:32;101819.84;;;-0.32;88.94
22241;BME280;11289;52.524;13.694;2023-01-29T08:43:04;101826.16;;;-0.32;89.38
22241;BME280;11289;52.524;13.694;2023-01-29T08:45:32;101845.91;;;-0.18;89.25
22241;BME280;11289;52.524;13.694;2023-01-29T08:47:58;101860.09;;;-0.09;89.12
22241;BME280;11289;52.524;13.694;2023-01-29T08:50:23;101840.69;;;-0.20;89.35
22241;BME280;11289;52.524;13.694;2023-01-29T08:52:49;101841.91;;;-0.15;89.24
22241;BME280;11289;52.524;13.694;2023-01-29T08:55:15;101827.84;;;-0.19;89.27
22241;BME280;11289;52.524;13.694;2023-01-29T08:57:40;101807.16;;;-0.27;89.08
22241;BME280;11289;52.524;13.694;2023-01-29T09:00:07;101810.66;;;-0.20;89.27
22241;BME280;11289;52.524;13.694;2023-01-29T09:02:33;101824.97;;;-0.06;89.12
22241;BME280;11289;52.524;13.694;2023-01-29T09:04:59;101840.06;;;-0.03;89.41
22241;BME280;11289;52.524;13.694;2023-01-29T09:07:24;101808.31;;;-0.16;89.39
22241;BME280;11289;52.524;13.694;2023-01-29T09:09:50;101828.69;;;0.00;89.31
22241;BME280;11289;52.524;13.694;2023-01-29T09:12:15;101816.03;;;-0.13;89.58
22241;BME280;11289;52.524;13.694;2023-01-29T09:14:40;101790.72;;;-0.20;89.23
22241;BME280;11289;52.524;13.694;2023-01-29T09:17:06;101818.19;;;-0.03;89.74
22241;BME280;11289;52.524;13.694;2023-01-29T09:19:31;101818.19;;;-0.03;89.82
22241;BME280;11289;52.524;13.694;2023-01-29T09:21:56;101814.72;;;-0.10;89.89
22241;BME280;11289;52.524;13.694;2023-01-29T09:24:22;101809.13;;;-0.15;89.94
22241;BME280;11289;52.524;13.694;2023-01-29T09:26:47;101843.41;;;-0.01;89.78
22241;BME280;11289;52.524;13.694;2023-01-29T09:29:13;101837.31;;;-0.03;89.84
22241;BME280;11289;52.524;13.694;2023-01-29T09:31:38;101839.38;;;0.02;89.44
22241;BME280;11289;52.524;13.694;2023-01-29T09:34:03;101838.53;;;0.01;89.99
22241;BME280;11289;52.524;13.694;2023-01-29T09:36:29;101837.47;;;0.02;89.90
22241;BME280;11289;52.524;13.694;2023-01-29T09:38:54;101828.69;;;0.00;90.19
22241;BME280;11289;52.524;13.694;2023-01-29T09:43:51;101800.00;;;-0.09;90.80
22241;BME280;11289;52.524;13.694;2023-01-29T09:49:02;101810.09;;;0.09;90.20
22241;BME280;11289;52.524;13.694;2023-01-29T09:51:34;101821.13;;;0.14;90.44
22241;BME280;11289;52.524;13.694;2023-01-29T09:54:17;101811.66;;;0.16;90.66
22241;BME280;11289;52.524;13.694;2023-01-29T09:56:47;101812.25;;;0.19;90.77
22241;BME280;11289;52.524;13.694;2023-01-29T09:59:16;101806.19;;;0.16;90.56
22241;BME280;11289;52.524;13.694;2023-01-29T10:07:16;101800.41;;;0.25;91.30
22241;BME280;11289;52.524;13.694;2023-01-29T10:15:27;101776.91;;;0.36;91.32
22241;BME280;11289;52.524;13.694;2023-01-29T10:20:57;101761.31;;;0.36;91.12
22241;BME280;11289;52.524;13.694;2023-01-29T10:23:37;101762.66;;;0.45;91.56
22241;BME280;11289;52.524;13.694;2023-01-29T10:26:10;101747.81;;;0.41;91.57
22241;BME280;11289;52.524;13.694;2023-01-29T10:28:44;101765.03;;;0.54;91.78
22241;BME280;11289;52.524;13.694;2023-01-29T10:31:16;101766.13;;;0.52;91.83
22241;BME280;11289;52.524;13.694;2023-01-29T10:33:48;101765.41;;;0.57;91.56
22241;BME280;11289;52.524;13.694;2023-01-29T10:36:36;101781.34;;;0.72;91.48
22241;BME280;11289;52.524;13.694;2023-01-29T10:39:04;101749.50;;;0.66;91.69
22241;BME280;11289;52.524;13.694;2023-01-29T10:44:42;101773.41;;;0.94;90.85
22241;BME280;11289;52.524;13.694;2023-01-29T11:00:41;101729.88;;;1.16;90.26
22241;BME280;11289;52.524;13.694;2023-01-29T11:03:32;101698.22;;;1.09;89.82
22241;BME280;11289;52.524;13.694;2023-01-29T11:08:42;101698.31;;;1.26;89.67
22241;BME280;11289;52.524;13.694;2023-01-29T11:11:15;101716.69;;;1.42;89.31
22241;BME280;11289;52.524;13.694;2023-01-29T11:16:17;101708.81;;;1.58;88.83
22241;BME280;11289;52.524;13.694;2023-01-29T11:19:00;101709.56;;;1.70;89.15
22241;BME280;11289;52.524;13.694;2023-01-29T11:21:27;101710.47;;;1.87;89.11
22241;BME280;11289;52.524;13.694;2023-01-29T11:24:28;101704.00;;;1.94;88.51
22241;BME280;11289;52.524;13.694;2023-01-29T11:26:57;101682.84;;;2.06;88.44
22241;BME280;11289;52.524;13.694;2023-01-29T11:29:46;101686.34;;;2.18;87.76
22241;BME280;11289;52.524;13.694;2023-01-29T11:32:27;101674.41;;;2.24;86.40
22241;BME280;11289;52.524;13.694;2023-01-29T11:37:33;101674.16;;;2.43;86.34
22241;BME280;11289;52.524;13.694;2023-01-29T11:39:59;101662.94;;;2.44;86.05
22241;BME280;11289;52.524;13.694;2023-01-29T11:42:29;101671.41;;;2.60;85.89
22241;BME280;11289;52.524;13.694;2023-01-29T11:44:55;101672.38;;;2.71;85.12
22241;BME280;11289;52.524;13.694;2023-01-29T11:47:25;101652.59;;;2.69;84.89
22241;BME280;11289;52.524;13.694;2023-01-29T11:49:56;101661.78;;;2.79;84.45
22241;BME280;11289;52.524;13.694;2023-01-29T11:52:42;101661.03;;;2.84;83.87
22241;BME280;11289;52.524;13.694;2023-01-29T11:55:15;101664.63;;;2.85;82.75
22241;BME280;11289;52.524;13.694;2023-01-29T11:57:43;101652.50;;;2.81;83.15
22241;BME280;11289;52.524;13.694;2023-01-29T12:00:24;101635.53;;;2.84;83.83
22241;BME280;11289;52.524;13.694;2023-01-29T12:02:56;101640.88;;;2.95;83.30
22241;BME280;11289;52.524;13.694;2023-01-29T12:05:25;101650.56;;;3.03;82.62
22241;BME280;11289;52.524;13.694;2023-01-29T12:07:56;101650.56;;;3.03;82.13
22241;BME280;11289;52.524;13.694;2023-01-29T12:10:34;101630.00;;;3.01;81.67
22241;BME280;11289;52.524;13.694;2023-01-29T12:15:29;101615.38;;;2.95;81.72
22241;BME280;11289;52.524;13.694;2023-01-29T12:18:06;101612.50;;;3.07;82.08
22241;BME280;11289;52.524;13.694;2023-01-29T12:20:59;101610.81;;;3.06;80.84
22241;BME280;11289;52.524;13.694;2023-01-29T12:26:37;101608.16;;;3.11;79.69
22241;BME280;11289;52.524;13.694;2023-01-29T12:31:53;101615.81;;;3.09;80.04
22241;BME280;11289;52.524;13.694;2023-01-29T12:34:43;101606.13;;;3.01;78.74
22241;BME280;11289;52.524;13.694;2023-01-29T12:39:50;101566.81;;;2.95;79.41
22241;BME280;11289;52.524;13.694;2023-01-29T12:42:20;101573.47;;;3.05;79.98
22241;BME280;11289;52.524;13.694;2023-01-29T12:44:58;101574.06;;;3.07;80.05
22241;BME280;11289;52.524;13.694;2023-01-29T12:47:30;101570.81;;;3.10;79.49
22241;BME280;11289;52.524;13.694;2023-01-29T12:50:03;101561.75;;;3.09;79.21
22241;BME280;11289;52.524;13.694;2023-01-29T12:52:38;101561.75;;;3.09;79.54
22241;BME280;11289;52.524;13.694;2023-01-29T12:55:19;101573.03;;;3.13;79.79
22241;BME280;11289;52.524;13.694;2023-01-29T13:00:20;101584.00;;;3.13;79.27
22241;BME280;11289;52.524;13.694;2023-01-29T13:05:38;101578.72;;;3.06;78.56
22241;BME280;11289;52.524;13.694;2023-01-29T13:10:59;101595.13;;;3.01;78.56
22241;BME280;11289;52.524;13.694;2023-01-29T13:16:09;101583.19;;;2.90;78.87
22241;BME280;11289;52.524;13.694;2023-01-29T13:21:38;101576.25;;;2.83;78.52
22241;BME280;11289;52.524;13.694;2023-01-29T13:26:33;101563.22;;;2.73;78.26
22241;BME280;11289;52.524;13.694;2023-01-29T13:28:59;101546.78;;;2.73;78.58
22241;BME280;11289;52.524;13.694;2023-01-29T13:31:38;101545.38;;;2.70;78.33
22241;BME280;11289;52.524;13.694;2023-01-29T13:34:35;101548.44;;;2.74;78.99
22241;BME280;11289;52.524;13.694;2023-01-29T13:39:47;101551.78;;;2.76;78.25
22241;BME280;11289;52.524;13.694;2023-01-29T13:42:17;101547.28;;;2.70;78.33
22241;BME280;11289;52.524;13.694;2023-01-29T13:44:47;101549.47;;;2.68;78.76
22241;BME280;11289;52.524;13.694;2023-01-29T13:47:22;101548.06;;;2.65;78.48
22241;BME280;11289;52.524;13.694;2023-01-29T13:49:56;101538.94;;;2.59;78.88
22241;BME280;11289;52.524;13.694;2023-01-29T13:52:35;101540.84;;;2.59;78.67
22241;BME280;11289;52.524;13.694;2023-01-29T14:02:47;101527.31;;;2.52;80.34
22241;BME280;11289;52.524;13.694;2023-01-29T14:10:27;101523.13;;;2.44;80.13
22241;BME280;11289;52.524;13.694;2023-01-29T14:15:45;101524.44;;;2.42;81.00
22241;BME280;11289;52.524;13.694;2023-01-29T14:18:32;101518.06;;;2.36;81.30
22241;BME280;11289;52.524;13.694;2023-01-29T14:21:24;101518.31;;;2.35;81.50
22241;BME280;11289;52.524;13.694;2023-01-29T14:23:55;101525.97;;;2.33;82.15
22241;BME280;11289;52.524;13.694;2023-01-29T14:31:43;101512.13;;;2.22;82.64
22241;BME280;11289;52.524;13.694;2023-01-29T14:36:50;101512.56;;;2.14;83.09
22241;BME280;11289;52.524;13.694;2023-01-29T14:39:33;101514.75;;;2.12;83.60
22241;BME280;11289;52.524;13.694;2023-01-29T14:42:02;101494.31;;;2.03;83.43
22241;BME280;11289;52.524;13.694;2023-01-29T14:47:17;101505.94;;;2.10;84.10
22241;BME280;11289;52.524;13.694;2023-01-29T14:49:54;101502.53;;;2.03;84.42
22241;BME280;11289;52.524;13.694;2023-01-29T14:52:32;101494.56;;;2.01;84.89
22241;BME280;11289;52.524;13.694;2023-01-29T14:55:03;101505.88;;;2.05;84.71
22241;BME280;11289;52.524;13.694;2023-01-29T14:57:30;101497.56;;;2.00;85.08
22241;BME280;11289;52.524;13.694;2023-01-29T15:00:04;101490.91;;;1.96;85.33
22241;BME280;11289;52.524;13.694;2023-01-29T15:02:37;101481.53;;;1.91;85.30
22241;BME280;11289;52.524;13.694;2023-01-29T15:05:10;101482.06;;;1.88;85.35
22241;BME280;11289;52.524;13.694;2023-01-29T15:13:03;101474.03;;;1.82;85.65
22241;BME280;11289;52.524;13.694;2023-01-29T15:15:36;101470.44;;;1.81;85.98
22241;BME280;11289;52.524;13.694;2023-01-29T15:20:43;101464.66;;;1.78;86.30
22241;BME280;11289;52.524;13.694;2023-01-29T15:23:32;101467.38;;;1.78;86.47
22241;BME280;11289;52.524;13.694;2023-01-29T15:26:04;101473.13;;;1.76;86.47
22241;BME280;11289;52.524;13.694;2023-01-29T15:28:31;101456.03;;;1.69;86.79
22241;BME280;11289;52.524;13.694;2023-01-29T15:31:00;101452.44;;;1.68;86.71
22241;BME280;11289;52.524;13.694;2023-01-29T15:33:28;101436.13;;;1.56;87.26
22241;BME280;11289;52.524;13.694;2023-01-29T15:35:57;101454.88;;;1.65;87.15